Latest Weather Observations for Biloela

IDQ60801

Issued at 8:32 pm EST Sunday 25 June 2017 (issued every 30 minutes, with the page automatically refreshed every 10 minutes)

About weather observations | Map of weather stations | Latest weather observations for QLD | Other Formats
Station Details ID: 039089 Name: THANGOOL AIRPORT Lat: -24.49 Lon: 150.57 Height: 193.1 m
Data from the previous 72 hours. | See also: Recent months at Biloela
Date/Time
EST
Temp
°C
App
Temp
°C
Dew
Point
°C
Rel
Hum
%
Delta-T
°C
Wind Press
QNH
hPa
Press
MSL
hPa
Rain since
9am
mm
Dir  Spd
km/h
Gust
km/h
Spd
kts
Gust
kts
25/08:30pm 12.8 10.5 7.5 70 2.6 ESE 9 15 5 8 1019.6 - 0.0
25/08:00pm 11.9 9.8 6.8 71 2.5 ESE 7 9 4 5 1019.4 - 0.0
25/07:30pm 13.2 12.5 6.8 65 3.1 CALM 0 0 0 0 1019.0 - 0.0
25/07:00pm 14.0 13.4 7.3 64 3.3 CALM 0 0 0 0 1018.7 - 0.0
25/06:30pm 15.2 14.7 7.7 61 3.8 CALM 0 0 0 0 1018.2 - 0.0
25/06:00pm 17.4 15.9 6.6 49 5.4 NNW 4 6 2 3 1018.1 1017.9 0.0
25/05:30pm 19.6 17.5 6.0 41 6.8 NNW 6 7 3 4 1017.9 - 0.0
25/05:00pm 23.0 21.0 6.3 34 8.6 N 6 7 3 4 1017.5 - 0.0
25/04:30pm 23.9 21.3 6.2 32 9.1 NNE 9 11 5 6 1017.5 - 0.0
25/04:00pm 25.2 23.3 6.9 31 9.7 N 6 7 3 4 1017.5 - 0.0
25/03:30pm 24.9 22.8 5.7 29 9.9 N 6 9 3 5 1017.4 - 0.0
25/03:00pm 25.2 23.1 5.9 29 10.0 NE 6 9 3 5 1017.6 1017.5 0.0
25/02:30pm 24.9 22.7 6.1 30 9.8 NNE 7 13 4 7 1017.6 - 0.0
25/02:00pm 25.2 23.2 6.9 31 9.7 NW 7 15 4 8 1017.9 - 0.0
25/01:30pm 24.6 22.5 6.8 32 9.3 NNE 7 13 4 7 1018.1 - 0.0
25/01:00pm 24.1 22.3 9.3 39 8.1 N 9 15 5 8 1018.3 - 0.0
25/12:30pm 23.6 22.1 9.2 40 7.8 NNW 7 13 4 7 1018.7 - 0.0
25/12:00pm 23.1 21.9 10.2 44 7.1 NNW 7 13 4 7 1019.3 1019.1 0.0
25/11:30am 22.4 21.0 10.9 48 6.4 NNW 9 15 5 8 1019.7 - 0.0
25/11:00am 21.4 19.7 9.9 48 6.3 NW 9 13 5 7 1020.1 - 0.0
25/10:30am 21.1 19.6 10.6 51 5.8 W 9 13 5 7 1020.5 - 0.0
25/10:00am 19.6 19.7 10.0 54 5.2 CALM 0 6 0 3 1020.7 - 0.0
25/09:30am 18.0 18.0 9.9 59 4.3 CALM 0 0 0 0 1020.7 - 0.0
25/09:00am 14.6 13.2 8.8 68 3.0 SSE 6 7 3 4 1020.7 1020.5 0.0
25/08:30am 12.8 11.0 9.3 79 1.8 E 9 11 5 6 1020.3 - 0.0
25/08:00am 10.1 7.9 7.7 85 1.2 E 9 11 5 6 1020.1 - 0.0
25/07:30am 8.4 6.0 7.2 92 0.6 E 9 11 5 6 1020.1 - 0.0
25/07:00am 6.4 3.7 5.5 94 0.4 E 9 11 5 6 1019.8 - 0.0
25/06:30am 6.7 4.0 5.8 94 0.4 E 9 11 5 6 1019.7 - 0.0
25/06:00am 6.3 3.9 5.3 93 0.4 ESE 7 9 4 5 1019.3 1019.1 0.0
25/05:30am 6.1 3.8 4.6 90 0.7 ESE 6 9 3 5 1019.0 - 0.0
25/05:00am 7.6 5.1 6.4 92 0.6 ESE 9 13 5 7 1018.7 - 0.0
25/04:30am 7.2 4.6 6.3 94 0.4 E 9 13 5 7 1018.6 - 0.0
25/04:00am 6.5 3.8 5.5 93 0.4 E 9 9 5 5 1018.8 - 0.0
25/03:30am 7.6 5.2 6.9 95 0.3 E 9 13 5 7 1018.9 - 0.0
25/03:00am 6.6 4.2 5.1 90 0.7 ESE 7 7 4 4 1019.0 1018.8 0.0
25/02:30am 7.4 5.2 6.3 93 0.5 E 7 9 4 5 1018.9 - 0.0
25/02:00am 6.8 4.3 5.0 88 0.8 ESE 7 9 4 5 1019.0 - 0.0
25/01:30am 8.3 6.3 7.2 93 0.5 E 7 9 4 5 1019.2 - 0.0
25/01:00am 7.4 5.3 5.9 90 0.7 ESE 6 9 3 5 1019.1 - 0.0
25/12:30am 7.7 5.5 5.2 84 1.1 E 6 7 3 4 1019.4 - 0.0
25/12:00am 9.5 7.2 7.3 86 1.0 E 9 11 5 6 1019.5 1019.3 0.0
 
Date/Time
EST
Temp
°C
App
Temp
°C
Dew
Point
°C
Rel
Hum
%
Delta-T
°C
Wind Press
QNH
hPa
Press
MSL
hPa
Rain since
9am
mm
Dir  Spd
km/h
Gust
km/h
Spd
kts
Gust
kts
24/11:30pm 8.5 6.4 5.6 82 1.3 ESE 6 7 3 4 1019.2 - 0.0
24/11:00pm 9.0 7.0 6.4 84 1.2 SE 6 9 3 5 1019.3 - 0.0
24/10:30pm 9.1 6.8 5.8 80 1.5 ESE 7 9 4 5 1019.3 - 0.0
24/10:00pm 10.8 8.6 7.7 81 1.5 E 9 9 5 5 1019.4 - 0.0
24/09:30pm 10.4 8.2 6.0 74 2.1 E 7 7 4 4 1019.3 - 0.0
24/09:00pm 12.5 10.7 8.0 74 2.2 E 7 9 4 5 1019.0 1018.8 0.0
24/08:30pm 12.2 10.3 7.5 73 2.3 ESE 7 11 4 6 1018.8 - 0.0
24/08:00pm 12.0 9.9 6.7 70 2.6 ENE 7 9 4 5 1018.6 - 0.0
24/07:30pm 12.0 10.2 7.1 72 2.4 ESE 6 7 3 4 1018.2 - 0.0
24/07:00pm 13.3 12.7 7.5 68 2.9 CALM 0 0 0 0 1017.9 - 0.0
24/06:30pm 14.8 14.1 7.1 60 3.8 CALM 0 0 0 0 1017.6 - 0.0
24/06:00pm 16.2 15.6 7.2 55 4.5 CALM 0 0 0 0 1017.2 1017.1 0.0
24/05:30pm 18.6 18.0 7.4 48 5.7 CALM 0 0 0 0 1017.0 - 0.0
24/05:00pm 21.5 20.9 7.3 40 7.4 CALM 0 0 0 0 1016.7 - 0.0
24/04:30pm 23.5 22.4 6.7 34 8.7 SE 2 7 1 4 1016.6 - 0.0
24/04:00pm 24.5 22.6 7.6 34 9.0 S 7 11 4 6 1016.4 - 0.0
24/03:30pm 24.2 22.3 6.9 33 9.1 W 6 9 3 5 1016.4 - 0.0
24/03:00pm 24.7 22.3 6.9 32 9.3 WSW 9 15 5 8 1016.4 1016.2 0.0
24/02:30pm 24.6 22.6 7.3 33 9.2 SSE 7 15 4 8 1016.5 - 0.0
24/02:00pm 24.7 21.8 8.2 35 8.9 WSW 13 20 7 11 1016.6 - 0.0
24/01:30pm 24.2 22.4 7.8 35 8.7 S 7 13 4 7 1016.8 - 0.0
24/01:00pm 24.1 21.5 9.3 39 8.1 WNW 13 24 7 13 1017.1 - 0.0
24/12:30pm 23.3 20.8 9.7 42 7.5 N 13 17 7 9 1018.0 - 0.0
24/12:00pm 22.6 20.3 10.4 46 6.7 NNW 13 19 7 10 1018.6 1018.4 0.0
24/11:30am 22.3 20.7 10.1 46 6.7 NNW 9 17 5 9 1019.2 - 0.0
24/11:00am 21.2 19.2 10.1 49 6.1 NNW 11 17 6 9 1019.7 - 0.0
24/10:30am 20.1 18.5 10.2 53 5.4 NW 9 15 5 8 1020.1 - 0.0
24/10:00am 18.9 17.8 9.9 56 4.8 N 6 7 3 4 1020.3 - 0.0
24/09:30am 16.9 15.8 9.8 63 3.8 ENE 6 7 3 4 1020.5 - 0.0
24/09:00am 14.0 12.6 9.0 72 2.6 E 6 7 3 4 1020.8 1020.6 0.0
24/08:30am 11.4 9.6 8.1 80 1.6 E 7 11 4 6 1020.8 - 0.0
24/08:00am 9.5 7.6 7.6 88 0.9 E 7 9 4 5 1020.6 - 0.0
24/07:30am 7.4 4.9 6.5 94 0.4 E 9 11 5 6 1020.3 - 0.0
24/07:00am 5.8 3.0 5.1 95 0.3 E 9 11 5 6 1019.9 - 0.0
24/06:30am 5.9 3.5 5.2 95 0.3 E 7 9 4 5 1019.6 - 0.0
24/06:00am 6.2 3.4 5.3 94 0.4 E 9 11 5 6 1019.4 1019.2 0.0
24/05:30am 6.1 3.3 5.2 94 0.4 E 9 11 5 6 1019.3 - 0.0
24/05:00am 6.1 3.0 5.4 95 0.3 E 11 13 6 7 1019.1 - 0.0
24/04:30am 6.7 4.4 5.5 92 0.5 E 7 9 4 5 1018.9 - 0.0
24/04:00am 7.3 4.7 6.2 93 0.5 E 9 11 5 6 1018.9 - 0.0
24/03:30am 7.1 4.4 5.7 91 0.6 E 9 9 5 5 1019.1 - 0.0
24/03:00am 7.1 4.8 5.9 92 0.5 E 7 9 4 5 1019.2 1019.0 0.0
24/02:30am 7.1 5.0 5.7 91 0.6 ESE 6 9 3 5 1019.2 - 0.0
24/02:00am 8.4 5.5 6.7 89 0.8 E 11 11 6 6 1019.3 - 0.0
24/01:30am 7.2 4.2 5.8 91 0.6 E 11 11 6 6 1019.8 - 0.0
24/01:00am 7.3 5.0 5.6 89 0.8 ESE 7 9 4 5 1019.9 - 0.0
24/12:30am 8.5 6.4 6.5 87 0.9 ESE 7 9 4 5 1019.7 - 0.0
24/12:00am 7.7 5.4 5.5 86 1.0 E 7 9 4 5 1019.9 1019.7 0.0
 
Date/Time
EST
Temp
°C
App
Temp
°C
Dew
Point
°C
Rel
Hum
%
Delta-T
°C
Wind Press
QNH
hPa
Press
MSL
hPa
Rain since
9am
mm
Dir  Spd
km/h
Gust
km/h
Spd
kts
Gust
kts
23/11:30pm 7.4 4.9 4.7 83 1.2 ESE 7 9 4 5 1020.4 - 0.0
23/11:00pm 8.5 6.2 5.6 82 1.3 SE 7 9 4 5 1020.7 - 0.0
23/10:30pm 8.4 5.7 5.5 82 1.3 E 9 9 5 5 1020.8 - 0.0
23/10:00pm 8.5 6.7 5.4 81 1.4 ESE 4 9 2 5 1021.0 - 0.0
23/09:30pm 9.3 8.3 5.5 77 1.7 CALM 0 6 0 3 1020.7 - 0.0
23/09:00pm 11.8 10.7 6.9 72 2.4 ENE 2 6 1 3 1020.5 1020.3 0.0
23/08:30pm 11.2 9.4 5.5 68 2.7 E 4 11 2 6 1020.6 - 0.0
23/08:00pm 13.3 12.5 6.6 64 3.2 CALM 0 0 0 0 1020.6 - 0.0
23/07:30pm 12.3 11.5 6.4 67 2.8 CALM 0 0 0 0 1020.5 - 0.0
23/07:00pm 12.8 10.5 5.9 63 3.3 E 7 9 4 5 1020.1 - 0.0
23/06:30pm 14.0 13.3 7.1 63 3.4 CALM 0 6 0 3 1019.6 - 0.0
23/06:00pm 16.4 15.6 6.5 52 4.9 CALM 0 0 0 0 1019.2 1019.0 0.0
23/05:30pm 18.4 17.6 6.6 46 5.9 CALM 0 0 0 0 1018.9 - 0.0
23/05:00pm 21.8 21.0 6.5 37 7.8 CALM 0 0 0 0 1018.9 - 0.0
23/04:30pm 23.1 21.0 6.0 33 8.8 WSW 6 9 3 5 1018.8 - 0.0
23/04:00pm 23.5 21.7 5.4 31 9.2 NE 4 7 2 4 1018.6 - 0.0
23/03:30pm 23.9 21.9 6.2 32 9.1 WSW 6 9 3 5 1018.6 - 0.0
23/03:00pm 23.7 21.6 6.0 32 9.1 W 6 13 3 7 1018.7 1018.5 0.0
23/02:30pm 23.8 21.8 7.0 34 8.8 WSW 7 11 4 6 1019.1 - 0.0
23/02:00pm 23.3 21.2 6.6 34 8.7 SSE 7 13 4 7 1019.4 - 0.0
23/01:30pm 23.4 20.6 7.1 35 8.5 WNW 11 15 6 8 1019.8 - 0.0
23/01:00pm 22.7 20.4 7.3 37 8.1 SSW 9 13 5 7 1020.3 - 0.0
23/12:30pm 22.4 19.9 6.6 36 8.1 SE 9 19 5 10 1020.9 - 0.0
23/12:00pm 22.0 20.2 7.0 38 7.7 ESE 6 13 3 7 1021.5 1021.4 0.0
23/11:30am 21.6 19.3 7.4 40 7.4 SSW 9 15 5 8 1022.1 - 0.0
23/11:00am 21.4 19.4 7.3 40 7.3 SSE 7 15 4 8 1022.7 - 0.0
23/10:30am 21.4 18.9 8.0 42 7.0 ESE 11 19 6 10 1023.4 - 0.0
23/10:00am 20.5 18.9 10.3 52 5.6 ENE 9 13 5 7 1023.9 - 0.0
23/09:30am 18.6 18.4 11.7 64 3.8 ESE 4 9 2 5 1024.0 - 0.0
23/09:00am 15.7 15.3 11.1 74 2.5 SE 4 11 2 6 1023.9 1023.7 0.0
23/08:30am 13.8 13.7 10.8 82 1.6 E 2 7 1 4 1023.7 - 0.0
23/08:00am 12.1 12.5 11.3 95 0.4 CALM 0 0 0 0 1023.4 - 0.0
23/07:30am 8.4 7.9 8.0 97 0.2 CALM 0 0 0 0 1023.0 - 0.0
23/07:14am 7.2 6.4 6.5 95 0.3 CALM 0 0 0 0 1022.8 - 0.0
23/07:00am 7.1 6.3 6.4 95 0.3 CALM 0 0 0 0 1022.8 - 0.0
23/06:30am 7.6 6.9 6.9 95 0.3 CALM 0 0 0 0 1022.5 - 0.0
23/06:00am 8.1 7.5 7.3 95 0.4 CALM 0 0 0 0 1022.5 1022.4 0.0
23/05:30am 8.4 7.8 7.5 94 0.4 CALM 0 0 0 0 1022.3 - 0.0
23/05:00am 9.2 8.8 8.1 93 0.5 CALM 0 0 0 0 1022.2 - 0.0
23/04:54am 8.7 8.1 7.6 93 0.5 CALM 0 0 0 0 1022.2 - 0.0
23/04:30am 9.2 8.8 8.1 93 0.5 CALM 0 0 0 0 1022.2 - 0.0
23/04:00am 9.3 8.7 7.6 89 0.8 CALM 0 0 0 0 1022.1 - 0.0
23/03:30am 10.3 10.0 8.6 89 0.8 CALM 0 0 0 0 1022.1 - 0.0
23/03:00am 11.0 10.8 8.9 87 1.0 CALM 0 0 0 0 1022.2 1022.1 0.0
23/02:30am 12.4 12.4 9.8 84 1.3 CALM 0 0 0 0 1022.2 - 0.0
23/02:00am 13.1 13.1 9.7 80 1.8 CALM 0 0 0 0 1022.3 - 0.0
23/01:30am 13.8 14.1 10.8 82 1.6 CALM 0 0 0 0 1022.4 - 0.0
23/01:00am 13.7 13.8 10.3 80 1.8 CALM 0 0 0 0 1022.5 - 0.0
23/12:30am 13.9 13.5 9.9 77 2.1 E 2 6 1 3 1022.4 - 0.0
23/12:00am 15.3 14.2 10.7 74 2.4 ESE 7 9 4 5 1022.6 1022.5 0.0
 
Date/Time
EST
Temp
°C
App
Temp
°C
Dew
Point
°C
Rel
Hum
%
Delta-T
°C
Wind Press
QNH
hPa
Press
MSL
hPa
Rain since
9am
mm
Dir  Spd
km/h
Gust
km/h
Spd
kts
Gust
kts
22/11:30pm 15.4 14.9 10.6 73 2.6 E 4 7 2 4 1022.8 - 0.0
22/11:00pm 16.4 15.4 10.9 70 3.0 E 7 9 4 5 1023.0 - 0.0
22/10:30pm 16.8 16.0 10.9 68 3.2 E 6 7 3 4 1023.3 - 0.0
22/10:00pm 16.4 15.6 11.1 71 2.9 ESE 6 7 3 4 1023.4 - 0.0
22/09:30pm 16.1 15.1 11.1 72 2.7 ENE 7 7 4 4 1023.4 - 0.0
22/09:00pm 14.9 13.9 10.9 77 2.1 E 7 7 4 4 1023.5 1023.3 0.0

Other Formats:

Comma delimited format used in spreadsheet applications
http://www.bom.gov.au/fwo/IDQ60801/IDQ60801.94376.axf

JavaScript Object Notation format (JSON) in row-major order
http://www.bom.gov.au/fwo/IDQ60801/IDQ60801.94376.json